sensor_id;sensor_type;location;lat;lon;timestamp;P1;durP1;ratioP1;P2;durP2;ratioP2
21894;SDS011;11112;51.270;7.224;2023-02-03T00:01:10;20.85;;;11.07;;
21894;SDS011;11112;51.270;7.224;2023-02-03T00:03:39;17.30;;;11.68;;
21894;SDS011;11112;51.270;7.224;2023-02-03T00:06:06;17.60;;;11.20;;
21894;SDS011;11112;51.270;7.224;2023-02-03T00:08:36;20.85;;;10.85;;
21894;SDS011;11112;51.270;7.224;2023-02-03T00:11:04;22.23;;;11.55;;
21894;SDS011;11112;51.270;7.224;2023-02-03T00:13:33;17.13;;;10.65;;
21894;SDS011;11112;51.270;7.224;2023-02-03T00:16:01;17.00;;;10.85;;
21894;SDS011;11112;51.270;7.224;2023-02-03T00:18:30;18.17;;;10.88;;
21894;SDS011;11112;51.270;7.224;2023-02-03T00:20:57;16.38;;;10.68;;
21894;SDS011;11112;51.270;7.224;2023-02-03T00:23:25;19.10;;;11.02;;
21894;SDS011;11112;51.270;7.224;2023-02-03T00:25:57;18.20;;;10.70;;
21894;SDS011;11112;51.270;7.224;2023-02-03T00:28:32;19.25;;;10.77;;
21894;SDS011;11112;51.270;7.224;2023-02-03T00:31:00;16.85;;;10.38;;
21894;SDS011;11112;51.270;7.224;2023-02-03T00:33:27;18.52;;;10.50;;
21894;SDS011;11112;51.270;7.224;2023-02-03T00:35:54;21.05;;;11.25;;
21894;SDS011;11112;51.270;7.224;2023-02-03T00:38:21;17.85;;;11.07;;
21894;SDS011;11112;51.270;7.224;2023-02-03T00:40:53;18.70;;;10.60;;
21894;SDS011;11112;51.270;7.224;2023-02-03T00:43:22;18.67;;;11.23;;
21894;SDS011;11112;51.270;7.224;2023-02-03T00:45:49;19.65;;;10.95;;
21894;SDS011;11112;51.270;7.224;2023-02-03T00:48:16;20.67;;;11.07;;
21894;SDS011;11112;51.270;7.224;2023-02-03T00:50:45;20.73;;;11.63;;
21894;SDS011;11112;51.270;7.224;2023-02-03T00:53:14;16.35;;;10.80;;
21894;SDS011;11112;51.270;7.224;2023-02-03T00:55:41;21.15;;;10.82;;
21894;SDS011;11112;51.270;7.224;2023-02-03T00:58:09;19.02;;;11.05;;
21894;SDS011;11112;51.270;7.224;2023-02-03T01:00:38;21.77;;;10.80;;
21894;SDS011;11112;51.270;7.224;2023-02-03T01:03:05;20.55;;;11.20;;
21894;SDS011;11112;51.270;7.224;2023-02-03T01:05:33;22.55;;;12.07;;
21894;SDS011;11112;51.270;7.224;2023-02-03T01:08:02;20.27;;;11.48;;
21894;SDS011;11112;51.270;7.224;2023-02-03T01:10:31;22.40;;;11.32;;
21894;SDS011;11112;51.270;7.224;2023-02-03T01:12:58;23.35;;;11.73;;
21894;SDS011;11112;51.270;7.224;2023-02-03T01:15:26;18.25;;;9.80;;
21894;SDS011;11112;51.270;7.224;2023-02-03T01:17:55;21.67;;;10.90;;
21894;SDS011;11112;51.270;7.224;2023-02-03T01:20:22;18.50;;;10.52;;
21894;SDS011;11112;51.270;7.224;2023-02-03T01:22:50;20.73;;;9.82;;
21894;SDS011;11112;51.270;7.224;2023-02-03T01:25:17;18.45;;;10.07;;
21894;SDS011;11112;51.270;7.224;2023-02-03T01:27:45;16.60;;;9.13;;
21894;SDS011;11112;51.270;7.224;2023-02-03T01:30:12;14.13;;;8.65;;
21894;SDS011;11112;51.270;7.224;2023-02-03T01:32:40;19.92;;;9.23;;
21894;SDS011;11112;51.270;7.224;2023-02-03T01:35:09;17.55;;;8.63;;
21894;SDS011;11112;51.270;7.224;2023-02-03T01:37:36;15.80;;;8.57;;
21894;SDS011;11112;51.270;7.224;2023-02-03T01:40:04;17.63;;;8.77;;
21894;SDS011;11112;51.270;7.224;2023-02-03T01:42:34;15.50;;;8.77;;
21894;SDS011;11112;51.270;7.224;2023-02-03T01:45:02;17.67;;;8.70;;
21894;SDS011;11112;51.270;7.224;2023-02-03T01:47:31;16.77;;;8.48;;
21894;SDS011;11112;51.270;7.224;2023-02-03T01:50:10;21.95;;;7.75;;
21894;SDS011;11112;51.270;7.224;2023-02-03T01:52:42;16.55;;;7.30;;
21894;SDS011;11112;51.270;7.224;2023-02-03T01:55:13;16.08;;;7.65;;
21894;SDS011;11112;51.270;7.224;2023-02-03T01:57:48;15.20;;;7.72;;
21894;SDS011;11112;51.270;7.224;2023-02-03T02:00:19;15.98;;;7.43;;
21894;SDS011;11112;51.270;7.224;2023-02-03T02:02:47;17.42;;;7.68;;
21894;SDS011;11112;51.270;7.224;2023-02-03T02:05:18;13.27;;;7.03;;
21894;SDS011;11112;51.270;7.224;2023-02-03T02:07:52;17.17;;;7.05;;
21894;SDS011;11112;51.270;7.224;2023-02-03T02:10:22;16.92;;;6.68;;
21894;SDS011;11112;51.270;7.224;2023-02-03T02:12:49;11.65;;;6.40;;
21894;SDS011;11112;51.270;7.224;2023-02-03T02:15:25;13.80;;;6.47;;
21894;SDS011;11112;51.270;7.224;2023-02-03T02:18:16;13.20;;;7.00;;
21894;SDS011;11112;51.270;7.224;2023-02-03T02:24:18;14.90;;;6.80;;
21894;SDS011;11112;51.270;7.224;2023-02-03T02:27:08;14.83;;;7.00;;
21894;SDS011;11112;51.270;7.224;2023-02-03T02:30:06;17.42;;;7.03;;
21894;SDS011;11112;51.270;7.224;2023-02-03T02:35:50;12.00;;;6.82;;
21894;SDS011;11112;51.270;7.224;2023-02-03T02:38:31;12.63;;;6.50;;
21894;SDS011;11112;51.270;7.224;2023-02-03T02:41:10;14.90;;;6.70;;
21894;SDS011;11112;51.270;7.224;2023-02-03T02:43:46;13.48;;;7.20;;
21894;SDS011;11112;51.270;7.224;2023-02-03T02:46:23;17.25;;;6.88;;
21894;SDS011;11112;51.270;7.224;2023-02-03T02:48:58;14.35;;;6.88;;
21894;SDS011;11112;51.270;7.224;2023-02-03T02:51:34;12.32;;;6.95;;
21894;SDS011;11112;51.270;7.224;2023-02-03T02:54:04;15.45;;;7.32;;
21894;SDS011;11112;51.270;7.224;2023-02-03T02:56:35;13.95;;;6.90;;
21894;SDS011;11112;51.270;7.224;2023-02-03T02:59:05;17.98;;;6.95;;
21894;SDS011;11112;51.270;7.224;2023-02-03T03:01:38;15.93;;;7.03;;
21894;SDS011;11112;51.270;7.224;2023-02-03T03:04:06;12.50;;;6.90;;
21894;SDS011;11112;51.270;7.224;2023-02-03T03:06:38;13.75;;;6.50;;
21894;SDS011;11112;51.270;7.224;2023-02-03T03:09:11;15.18;;;6.70;;
21894;SDS011;11112;51.270;7.224;2023-02-03T03:11:42;13.38;;;6.65;;
21894;SDS011;11112;51.270;7.224;2023-02-03T03:14:16;20.33;;;6.88;;
21894;SDS011;11112;51.270;7.224;2023-02-03T03:16:46;20.73;;;7.15;;
21894;SDS011;11112;51.270;7.224;2023-02-03T03:19:19;14.60;;;6.65;;
21894;SDS011;11112;51.270;7.224;2023-02-03T03:21:52;14.70;;;6.25;;
21894;SDS011;11112;51.270;7.224;2023-02-03T03:24:23;13.77;;;6.82;;
21894;SDS011;11112;51.270;7.224;2023-02-03T03:26:55;13.80;;;5.72;;
21894;SDS011;11112;51.270;7.224;2023-02-03T03:29:31;14.23;;;6.15;;
21894;SDS011;11112;51.270;7.224;2023-02-03T03:32:03;13.13;;;5.82;;
21894;SDS011;11112;51.270;7.224;2023-02-03T03:34:30;13.27;;;5.68;;
21894;SDS011;11112;51.270;7.224;2023-02-03T03:37:01;13.98;;;5.80;;
21894;SDS011;11112;51.270;7.224;2023-02-03T03:39:36;12.98;;;5.10;;
21894;SDS011;11112;51.270;7.224;2023-02-03T03:42:11;13.50;;;5.60;;
21894;SDS011;11112;51.270;7.224;2023-02-03T03:44:47;11.73;;;5.50;;
21894;SDS011;11112;51.270;7.224;2023-02-03T03:47:22;12.35;;;5.65;;
21894;SDS011;11112;51.270;7.224;2023-02-03T03:49:54;11.35;;;5.13;;
21894;SDS011;11112;51.270;7.224;2023-02-03T03:52:27;13.15;;;5.38;;
21894;SDS011;11112;51.270;7.224;2023-02-03T03:54:58;12.45;;;5.40;;
21894;SDS011;11112;51.270;7.224;2023-02-03T03:57:28;13.02;;;6.10;;
21894;SDS011;11112;51.270;7.224;2023-02-03T04:00:04;13.98;;;6.00;;
21894;SDS011;11112;51.270;7.224;2023-02-03T04:02:38;12.38;;;5.53;;
21894;SDS011;11112;51.270;7.224;2023-02-03T04:05:07;12.05;;;5.30;;
21894;SDS011;11112;51.270;7.224;2023-02-03T04:07:39;13.45;;;6.07;;
21894;SDS011;11112;51.270;7.224;2023-02-03T04:10:12;12.70;;;5.88;;
21894;SDS011;11112;51.270;7.224;2023-02-03T04:12:47;12.77;;;5.68;;
21894;SDS011;11112;51.270;7.224;2023-02-03T04:15:14;16.17;;;6.30;;
21894;SDS011;11112;51.270;7.224;2023-02-03T04:17:42;12.65;;;6.70;;
21894;SDS011;11112;51.270;7.224;2023-02-03T04:20:09;13.70;;;6.15;;
21894;SDS011;11112;51.270;7.224;2023-02-03T04:22:39;12.55;;;6.32;;
21894;SDS011;11112;51.270;7.224;2023-02-03T04:25:06;12.68;;;6.22;;
21894;SDS011;11112;51.270;7.224;2023-02-03T04:27:34;14.18;;;6.85;;
21894;SDS011;11112;51.270;7.224;2023-02-03T04:30:01;15.60;;;7.10;;
21894;SDS011;11112;51.270;7.224;2023-02-03T04:32:29;15.73;;;7.20;;
21894;SDS011;11112;51.270;7.224;2023-02-03T04:34:56;15.02;;;6.47;;
21894;SDS011;11112;51.270;7.224;2023-02-03T04:37:24;14.95;;;7.32;;
21894;SDS011;11112;51.270;7.224;2023-02-03T04:39:52;15.85;;;6.65;;
21894;SDS011;11112;51.270;7.224;2023-02-03T04:42:20;11.35;;;6.55;;
21894;SDS011;11112;51.270;7.224;2023-02-03T04:44:47;14.52;;;6.95;;
21894;SDS011;11112;51.270;7.224;2023-02-03T04:47:14;15.43;;;6.88;;
21894;SDS011;11112;51.270;7.224;2023-02-03T04:49:42;13.52;;;6.65;;
21894;SDS011;11112;51.270;7.224;2023-02-03T04:52:10;13.15;;;6.68;;
21894;SDS011;11112;51.270;7.224;2023-02-03T04:54:38;14.23;;;6.95;;
21894;SDS011;11112;51.270;7.224;2023-02-03T04:57:06;14.73;;;6.72;;
21894;SDS011;11112;51.270;7.224;2023-02-03T04:59:33;16.58;;;6.88;;
21894;SDS011;11112;51.270;7.224;2023-02-03T05:02:00;14.05;;;6.22;;
21894;SDS011;11112;51.270;7.224;2023-02-03T05:04:29;15.95;;;6.55;;
21894;SDS011;11112;51.270;7.224;2023-02-03T05:06:56;11.32;;;6.30;;
21894;SDS011;11112;51.270;7.224;2023-02-03T05:09:23;11.70;;;6.15;;
21894;SDS011;11112;51.270;7.224;2023-02-03T05:11:50;14.57;;;6.75;;
21894;SDS011;11112;51.270;7.224;2023-02-03T05:14:19;16.05;;;6.40;;
21894;SDS011;11112;51.270;7.224;2023-02-03T05:16:46;13.90;;;5.85;;
21894;SDS011;11112;51.270;7.224;2023-02-03T05:19:13;12.90;;;6.15;;
21894;SDS011;11112;51.270;7.224;2023-02-03T05:21:40;17.20;;;6.35;;
21894;SDS011;11112;51.270;7.224;2023-02-03T05:24:07;14.90;;;6.20;;
21894;SDS011;11112;51.270;7.224;2023-02-03T05:26:35;13.32;;;6.05;;
21894;SDS011;11112;51.270;7.224;2023-02-03T05:29:02;11.45;;;5.78;;
21894;SDS011;11112;51.270;7.224;2023-02-03T05:31:30;16.33;;;5.80;;
21894;SDS011;11112;51.270;7.224;2023-02-03T05:33:58;16.70;;;5.85;;
21894;SDS011;11112;51.270;7.224;2023-02-03T05:36:25;21.85;;;7.28;;
21894;SDS011;11112;51.270;7.224;2023-02-03T05:38:53;18.33;;;7.25;;
21894;SDS011;11112;51.270;7.224;2023-02-03T05:41:20;20.05;;;7.03;;
21894;SDS011;11112;51.270;7.224;2023-02-03T05:44:05;19.58;;;7.78;;
21894;SDS011;11112;51.270;7.224;2023-02-03T05:46:34;18.10;;;7.20;;
21894;SDS011;11112;51.270;7.224;2023-02-03T05:49:01;20.10;;;7.68;;
21894;SDS011;11112;51.270;7.224;2023-02-03T05:51:28;18.65;;;6.55;;
21894;SDS011;11112;51.270;7.224;2023-02-03T05:53:55;15.15;;;5.68;;
21894;SDS011;11112;51.270;7.224;2023-02-03T05:56:21;13.73;;;4.50;;
21894;SDS011;11112;51.270;7.224;2023-02-03T05:58:49;14.43;;;5.00;;
21894;SDS011;11112;51.270;7.224;2023-02-03T06:01:17;12.55;;;4.60;;
21894;SDS011;11112;51.270;7.224;2023-02-03T06:03:46;12.07;;;4.78;;
21894;SDS011;11112;51.270;7.224;2023-02-03T06:06:13;13.07;;;5.20;;
21894;SDS011;11112;51.270;7.224;2023-02-03T06:08:40;10.68;;;4.63;;
21894;SDS011;11112;51.270;7.224;2023-02-03T06:11:08;11.82;;;4.15;;
21894;SDS011;11112;51.270;7.224;2023-02-03T06:13:36;12.27;;;4.22;;
21894;SDS011;11112;51.270;7.224;2023-02-03T06:16:03;14.02;;;4.20;;
21894;SDS011;11112;51.270;7.224;2023-02-03T06:18:31;13.23;;;4.20;;
21894;SDS011;11112;51.270;7.224;2023-02-03T06:20:59;12.23;;;5.00;;
21894;SDS011;11112;51.270;7.224;2023-02-03T06:23:26;17.08;;;6.35;;
21894;SDS011;11112;51.270;7.224;2023-02-03T06:25:53;12.85;;;5.15;;
21894;SDS011;11112;51.270;7.224;2023-02-03T06:28:20;12.82;;;4.97;;
21894;SDS011;11112;51.270;7.224;2023-02-03T06:30:48;11.40;;;3.92;;
21894;SDS011;11112;51.270;7.224;2023-02-03T06:33:17;11.93;;;3.90;;
21894;SDS011;11112;51.270;7.224;2023-02-03T06:35:44;12.38;;;3.70;;
21894;SDS011;11112;51.270;7.224;2023-02-03T06:38:12;10.50;;;3.03;;
21894;SDS011;11112;51.270;7.224;2023-02-03T06:40:39;13.20;;;3.50;;
21894;SDS011;11112;51.270;7.224;2023-02-03T06:43:13;10.43;;;3.25;;
21894;SDS011;11112;51.270;7.224;2023-02-03T06:48:10;11.38;;;3.15;;
21894;SDS011;11112;51.270;7.224;2023-02-03T06:50:37;11.43;;;3.35;;
21894;SDS011;11112;51.270;7.224;2023-02-03T06:53:04;12.35;;;3.45;;
21894;SDS011;11112;51.270;7.224;2023-02-03T06:55:32;12.45;;;3.38;;
21894;SDS011;11112;51.270;7.224;2023-02-03T06:58:00;9.73;;;3.20;;
21894;SDS011;11112;51.270;7.224;2023-02-03T07:00:27;10.05;;;3.00;;
21894;SDS011;11112;51.270;7.224;2023-02-03T07:02:54;9.48;;;2.83;;
21894;SDS011;11112;51.270;7.224;2023-02-03T07:05:23;10.95;;;2.97;;
21894;SDS011;11112;51.270;7.224;2023-02-03T07:07:51;12.80;;;3.38;;
21894;SDS011;11112;51.270;7.224;2023-02-03T07:10:19;10.60;;;2.92;;
21894;SDS011;11112;51.270;7.224;2023-02-03T07:12:48;10.88;;;3.00;;
21894;SDS011;11112;51.270;7.224;2023-02-03T07:15:16;13.05;;;5.47;;
21894;SDS011;11112;51.270;7.224;2023-02-03T07:17:45;13.68;;;5.50;;
21894;SDS011;11112;51.270;7.224;2023-02-03T07:20:18;12.35;;;3.90;;
21894;SDS011;11112;51.270;7.224;2023-02-03T07:22:50;11.50;;;3.67;;
21894;SDS011;11112;51.270;7.224;2023-02-03T07:25:19;9.88;;;2.95;;
21894;SDS011;11112;51.270;7.224;2023-02-03T07:27:48;10.88;;;3.60;;
21894;SDS011;11112;51.270;7.224;2023-02-03T07:30:16;8.40;;;3.25;;
21894;SDS011;11112;51.270;7.224;2023-02-03T07:32:47;12.18;;;3.40;;
21894;SDS011;11112;51.270;7.224;2023-02-03T07:35:15;9.70;;;3.88;;
21894;SDS011;11112;51.270;7.224;2023-02-03T07:37:42;14.48;;;4.13;;
21894;SDS011;11112;51.270;7.224;2023-02-03T07:40:10;13.07;;;5.03;;
21894;SDS011;11112;51.270;7.224;2023-02-03T07:42:40;12.43;;;4.53;;
21894;SDS011;11112;51.270;7.224;2023-02-03T07:45:10;12.88;;;4.50;;
21894;SDS011;11112;51.270;7.224;2023-02-03T07:47:38;12.52;;;4.30;;
21894;SDS011;11112;51.270;7.224;2023-02-03T07:50:07;11.43;;;4.30;;
21894;SDS011;11112;51.270;7.224;2023-02-03T07:52:35;13.70;;;4.90;;
21894;SDS011;11112;51.270;7.224;2023-02-03T07:55:02;16.80;;;4.50;;
21894;SDS011;11112;51.270;7.224;2023-02-03T07:57:29;14.05;;;5.50;;
21894;SDS011;11112;51.270;7.224;2023-02-03T07:59:56;12.20;;;4.80;;
21894;SDS011;11112;51.270;7.224;2023-02-03T08:02:25;8.43;;;4.55;;
21894;SDS011;11112;51.270;7.224;2023-02-03T08:04:52;11.45;;;4.80;;
21894;SDS011;11112;51.270;7.224;2023-02-03T08:07:21;11.65;;;4.88;;
21894;SDS011;11112;51.270;7.224;2023-02-03T08:09:49;12.73;;;4.72;;
21894;SDS011;11112;51.270;7.224;2023-02-03T08:12:16;12.45;;;4.88;;
21894;SDS011;11112;51.270;7.224;2023-02-03T08:14:43;11.15;;;4.80;;
21894;SDS011;11112;51.270;7.224;2023-02-03T08:17:10;9.60;;;4.32;;
21894;SDS011;11112;51.270;7.224;2023-02-03T08:19:38;11.55;;;5.00;;
21894;SDS011;11112;51.270;7.224;2023-02-03T08:22:06;11.98;;;5.30;;
21894;SDS011;11112;51.270;7.224;2023-02-03T08:24:33;11.93;;;5.72;;
21894;SDS011;11112;51.270;7.224;2023-02-03T08:27:00;14.75;;;5.63;;
21894;SDS011;11112;51.270;7.224;2023-02-03T08:29:27;15.88;;;5.10;;
21894;SDS011;11112;51.270;7.224;2023-02-03T08:31:54;9.85;;;4.38;;
21894;SDS011;11112;51.270;7.224;2023-02-03T08:34:22;9.93;;;3.92;;
21894;SDS011;11112;51.270;7.224;2023-02-03T08:36:51;12.10;;;4.97;;
21894;SDS011;11112;51.270;7.224;2023-02-03T08:39:18;11.82;;;4.40;;
21894;SDS011;11112;51.270;7.224;2023-02-03T08:41:45;10.75;;;4.22;;
21894;SDS011;11112;51.270;7.224;2023-02-03T08:44:12;10.55;;;4.50;;
21894;SDS011;11112;51.270;7.224;2023-02-03T08:46:39;10.15;;;4.68;;
21894;SDS011;11112;51.270;7.224;2023-02-03T08:49:08;9.43;;;4.55;;
21894;SDS011;11112;51.270;7.224;2023-02-03T08:51:35;11.48;;;4.82;;
21894;SDS011;11112;51.270;7.224;2023-02-03T08:54:04;12.93;;;5.00;;
21894;SDS011;11112;51.270;7.224;2023-02-03T08:56:31;14.90;;;5.40;;
21894;SDS011;11112;51.270;7.224;2023-02-03T08:58:59;9.63;;;5.32;;
21894;SDS011;11112;51.270;7.224;2023-02-03T09:01:26;17.05;;;5.80;;
21894;SDS011;11112;51.270;7.224;2023-02-03T09:03:53;14.20;;;6.47;;
21894;SDS011;11112;51.270;7.224;2023-02-03T09:06:20;11.15;;;6.07;;
21894;SDS011;11112;51.270;7.224;2023-02-03T09:08:47;15.48;;;6.00;;
21894;SDS011;11112;51.270;7.224;2023-02-03T09:11:17;11.55;;;6.25;;
21894;SDS011;11112;51.270;7.224;2023-02-03T09:13:44;13.00;;;6.97;;
21894;SDS011;11112;51.270;7.224;2023-02-03T09:16:12;13.25;;;6.75;;
21894;SDS011;11112;51.270;7.224;2023-02-03T09:18:42;14.40;;;7.03;;
21894;SDS011;11112;51.270;7.224;2023-02-03T09:21:10;12.45;;;7.45;;
21894;SDS011;11112;51.270;7.224;2023-02-03T09:23:39;12.48;;;7.75;;
21894;SDS011;11112;51.270;7.224;2023-02-03T09:26:07;12.35;;;7.53;;
21894;SDS011;11112;51.270;7.224;2023-02-03T09:28:38;14.45;;;7.28;;
21894;SDS011;11112;51.270;7.224;2023-02-03T09:31:06;11.80;;;7.63;;
21894;SDS011;11112;51.270;7.224;2023-02-03T09:33:34;13.10;;;8.23;;
21894;SDS011;11112;51.270;7.224;2023-02-03T09:36:02;12.60;;;7.97;;
21894;SDS011;11112;51.270;7.224;2023-02-03T09:38:31;15.13;;;8.80;;
21894;SDS011;11112;51.270;7.224;2023-02-03T09:40:59;15.23;;;9.60;;
21894;SDS011;11112;51.270;7.224;2023-02-03T09:43:33;13.68;;;9.13;;
21894;SDS011;11112;51.270;7.224;2023-02-03T09:46:04;14.15;;;8.00;;
21894;SDS011;11112;51.270;7.224;2023-02-03T09:48:37;12.93;;;8.10;;
21894;SDS011;11112;51.270;7.224;2023-02-03T09:51:14;11.52;;;8.30;;
21894;SDS011;11112;51.270;7.224;2023-02-03T09:53:47;11.88;;;8.50;;
21894;SDS011;11112;51.270;7.224;2023-02-03T09:56:24;10.18;;;7.97;;
21894;SDS011;11112;51.270;7.224;2023-02-03T10:01:24;12.13;;;8.18;;
21894;SDS011;11112;51.270;7.224;2023-02-03T10:04:12;12.32;;;8.57;;
21894;SDS011;11112;51.270;7.224;2023-02-03T10:06:52;10.65;;;7.93;;
21894;SDS011;11112;51.270;7.224;2023-02-03T10:09:29;13.18;;;8.25;;
21894;SDS011;11112;51.270;7.224;2023-02-03T10:12:22;12.15;;;8.52;;
21894;SDS011;11112;51.270;7.224;2023-02-03T10:15:14;13.13;;;8.85;;
21894;SDS011;11112;51.270;7.224;2023-02-03T10:18:18;18.25;;;9.18;;
21894;SDS011;11112;51.270;7.224;2023-02-03T10:20:49;14.32;;;10.23;;
21894;SDS011;11112;51.270;7.224;2023-02-03T10:23:21;15.35;;;9.23;;
21894;SDS011;11112;51.270;7.224;2023-02-03T10:25:55;13.68;;;8.88;;
21894;SDS011;11112;51.270;7.224;2023-02-03T10:28:25;15.77;;;9.50;;
21894;SDS011;11112;51.270;7.224;2023-02-03T10:30:58;12.75;;;9.13;;
21894;SDS011;11112;51.270;7.224;2023-02-03T10:33:29;16.75;;;10.30;;
21894;SDS011;11112;51.270;7.224;2023-02-03T10:36:00;17.88;;;8.73;;
21894;SDS011;11112;51.270;7.224;2023-02-03T10:38:38;13.20;;;9.70;;
21894;SDS011;11112;51.270;7.224;2023-02-03T10:41:17;13.93;;;9.55;;
21894;SDS011;11112;51.270;7.224;2023-02-03T10:43:45;16.50;;;9.77;;
21894;SDS011;11112;51.270;7.224;2023-02-03T10:46:18;13.23;;;9.70;;
21894;SDS011;11112;51.270;7.224;2023-02-03T10:48:51;14.45;;;9.73;;
21894;SDS011;11112;51.270;7.224;2023-02-03T10:51:19;16.20;;;9.70;;
21894;SDS011;11112;51.270;7.224;2023-02-03T10:53:49;18.50;;;9.60;;
21894;SDS011;11112;51.270;7.224;2023-02-03T10:56:18;17.13;;;9.80;;
21894;SDS011;11112;51.270;7.224;2023-02-03T10:58:49;17.05;;;9.75;;
21894;SDS011;11112;51.270;7.224;2023-02-03T11:01:21;16.73;;;9.80;;
21894;SDS011;11112;51.270;7.224;2023-02-03T11:03:54;16.25;;;9.65;;
21894;SDS011;11112;51.270;7.224;2023-02-03T11:06:27;15.90;;;9.50;;
21894;SDS011;11112;51.270;7.224;2023-02-03T11:08:55;16.23;;;10.07;;
21894;SDS011;11112;51.270;7.224;2023-02-03T11:11:22;16.35;;;10.30;;
21894;SDS011;11112;51.270;7.224;2023-02-03T11:13:52;17.80;;;9.90;;
21894;SDS011;11112;51.270;7.224;2023-02-03T11:16:39;17.42;;;9.85;;
21894;SDS011;11112;51.270;7.224;2023-02-03T11:19:10;17.50;;;10.75;;
21894;SDS011;11112;51.270;7.224;2023-02-03T11:21:43;15.73;;;10.48;;
21894;SDS011;11112;51.270;7.224;2023-02-03T11:24:16;19.92;;;10.60;;
21894;SDS011;11112;51.270;7.224;2023-02-03T11:26:47;15.45;;;10.65;;
21894;SDS011;11112;51.270;7.224;2023-02-03T11:29:18;19.00;;;11.15;;
21894;SDS011;11112;51.270;7.224;2023-02-03T11:31:52;15.10;;;10.98;;
21894;SDS011;11112;51.270;7.224;2023-02-03T11:34:23;16.00;;;10.75;;
21894;SDS011;11112;51.270;7.224;2023-02-03T11:36:53;18.77;;;10.73;;
21894;SDS011;11112;51.270;7.224;2023-02-03T11:39:24;18.20;;;10.98;;
21894;SDS011;11112;51.270;7.224;2023-02-03T11:44:22;16.48;;;10.60;;
21894;SDS011;11112;51.270;7.224;2023-02-03T11:46:55;21.00;;;10.35;;
21894;SDS011;11112;51.270;7.224;2023-02-03T11:55:37;16.85;;;10.60;;
21894;SDS011;11112;51.270;7.224;2023-02-03T12:01:13;21.55;;;11.10;;
21894;SDS011;11112;51.270;7.224;2023-02-03T12:07:02;17.55;;;10.55;;
21894;SDS011;11112;51.270;7.224;2023-02-03T12:09:47;14.85;;;10.68;;
21894;SDS011;11112;51.270;7.224;2023-02-03T12:12:27;19.10;;;11.40;;
21894;SDS011;11112;51.270;7.224;2023-02-03T12:15:23;17.48;;;11.00;;
21894;SDS011;11112;51.270;7.224;2023-02-03T12:18:16;15.70;;;10.60;;
21894;SDS011;11112;51.270;7.224;2023-02-03T12:21:01;19.40;;;9.70;;
21894;SDS011;11112;51.270;7.224;2023-02-03T12:23:50;21.75;;;10.55;;
21894;SDS011;11112;51.270;7.224;2023-02-03T12:26:27;19.30;;;10.55;;
21894;SDS011;11112;51.270;7.224;2023-02-03T12:29:01;16.67;;;9.40;;
21894;SDS011;11112;51.270;7.224;2023-02-03T12:31:34;16.20;;;9.85;;
21894;SDS011;11112;51.270;7.224;2023-02-03T12:34:08;13.88;;;10.02;;
21894;SDS011;11112;51.270;7.224;2023-02-03T12:36:44;17.75;;;9.38;;
21894;SDS011;11112;51.270;7.224;2023-02-03T12:39:18;19.65;;;9.65;;
21894;SDS011;11112;51.270;7.224;2023-02-03T12:41:53;22.55;;;9.63;;
21894;SDS011;11112;51.270;7.224;2023-02-03T12:47:00;16.08;;;8.35;;
21894;SDS011;11112;51.270;7.224;2023-02-03T12:49:34;16.70;;;8.75;;
21894;SDS011;11112;51.270;7.224;2023-02-03T12:52:13;18.70;;;8.80;;
21894;SDS011;11112;51.270;7.224;2023-02-03T12:54:48;15.80;;;8.63;;
21894;SDS011;11112;51.270;7.224;2023-02-03T12:57:26;17.42;;;9.23;;
21894;SDS011;11112;51.270;7.224;2023-02-03T13:00:02;13.43;;;7.57;;
21894;SDS011;11112;51.270;7.224;2023-02-03T13:02:44;15.00;;;7.63;;
21894;SDS011;11112;51.270;7.224;2023-02-03T13:05:26;16.95;;;7.70;;
21894;SDS011;11112;51.270;7.224;2023-02-03T13:08:04;11.57;;;7.80;;
21894;SDS011;11112;51.270;7.224;2023-02-03T13:10:39;21.52;;;8.50;;
21894;SDS011;11112;51.270;7.224;2023-02-03T13:13:14;20.30;;;7.60;;
21894;SDS011;11112;51.270;7.224;2023-02-03T13:15:54;14.32;;;7.20;;
21894;SDS011;11112;51.270;7.224;2023-02-03T13:18:24;17.25;;;8.07;;
21894;SDS011;11112;51.270;7.224;2023-02-03T13:20:54;13.60;;;6.90;;
21894;SDS011;11112;51.270;7.224;2023-02-03T13:23:23;14.30;;;7.35;;
21894;SDS011;11112;51.270;7.224;2023-02-03T13:26:02;17.83;;;7.30;;
21894;SDS011;11112;51.270;7.224;2023-02-03T13:29:07;14.35;;;7.40;;
21894;SDS011;11112;51.270;7.224;2023-02-03T13:32:09;15.52;;;7.85;;
21894;SDS011;11112;51.270;7.224;2023-02-03T13:34:56;19.52;;;7.90;;
21894;SDS011;11112;51.270;7.224;2023-02-03T13:37:51;14.63;;;7.72;;
21894;SDS011;11112;51.270;7.224;2023-02-03T13:40:50;16.05;;;7.18;;
21894;SDS011;11112;51.270;7.224;2023-02-03T13:43:28;20.27;;;7.47;;
21894;SDS011;11112;51.270;7.224;2023-02-03T13:45:58;14.98;;;7.80;;
21894;SDS011;11112;51.270;7.224;2023-02-03T13:48:26;14.07;;;8.10;;
21894;SDS011;11112;51.270;7.224;2023-02-03T13:51:04;15.32;;;8.07;;
21894;SDS011;11112;51.270;7.224;2023-02-03T13:53:39;16.80;;;7.53;;
21894;SDS011;11112;51.270;7.224;2023-02-03T13:56:15;17.20;;;7.78;;
21894;SDS011;11112;51.270;7.224;2023-02-03T13:58:57;18.48;;;8.05;;
21894;SDS011;11112;51.270;7.224;2023-02-03T14:01:29;16.83;;;8.10;;
21894;SDS011;11112;51.270;7.224;2023-02-03T14:04:02;15.50;;;7.03;;
21894;SDS011;11112;51.270;7.224;2023-02-03T14:09:38;18.73;;;8.55;;
21894;SDS011;11112;51.270;7.224;2023-02-03T14:15:18;15.68;;;7.28;;
21894;SDS011;11112;51.270;7.224;2023-02-03T14:21:11;12.48;;;6.63;;
21894;SDS011;11112;51.270;7.224;2023-02-03T14:23:55;17.80;;;6.72;;
21894;SDS011;11112;51.270;7.224;2023-02-03T14:26:31;17.38;;;7.72;;
21894;SDS011;11112;51.270;7.224;2023-02-03T14:29:05;16.70;;;7.78;;
21894;SDS011;11112;51.270;7.224;2023-02-03T14:31:51;20.33;;;7.78;;
21894;SDS011;11112;51.270;7.224;2023-02-03T14:34:34;17.90;;;7.63;;
21894;SDS011;11112;51.270;7.224;2023-02-03T14:37:09;11.77;;;6.78;;
21894;SDS011;11112;51.270;7.224;2023-02-03T14:42:48;14.43;;;7.00;;
21894;SDS011;11112;51.270;7.224;2023-02-03T14:45:54;15.70;;;6.35;;
21894;SDS011;11112;51.270;7.224;2023-02-03T14:57:37;20.25;;;3.80;;
21894;SDS011;11112;51.270;7.224;2023-02-03T15:00:23;22.63;;;3.92;;
21894;SDS011;11112;51.270;7.224;2023-02-03T15:05:50;19.30;;;3.47;;
21894;SDS011;11112;51.270;7.224;2023-02-03T15:08:40;26.95;;;4.30;;
21894;SDS011;11112;51.270;7.224;2023-02-03T15:14:16;22.42;;;3.78;;
21894;SDS011;11112;51.270;7.224;2023-02-03T15:16:47;24.88;;;4.13;;
21894;SDS011;11112;51.270;7.224;2023-02-03T15:19:22;29.10;;;4.90;;
21894;SDS011;11112;51.270;7.224;2023-02-03T15:21:52;22.45;;;4.70;;
21894;SDS011;11112;51.270;7.224;2023-02-03T15:24:20;27.48;;;4.75;;
21894;SDS011;11112;51.270;7.224;2023-02-03T15:26:50;26.45;;;4.70;;
21894;SDS011;11112;51.270;7.224;2023-02-03T15:29:21;22.70;;;4.47;;
21894;SDS011;11112;51.270;7.224;2023-02-03T15:31:54;29.60;;;4.70;;
21894;SDS011;11112;51.270;7.224;2023-02-03T15:34:31;30.95;;;4.82;;
21894;SDS011;11112;51.270;7.224;2023-02-03T15:37:05;30.70;;;5.03;;
21894;SDS011;11112;51.270;7.224;2023-02-03T15:39:40;24.95;;;4.65;;
21894;SDS011;11112;51.270;7.224;2023-02-03T15:42:19;27.15;;;5.28;;
21894;SDS011;11112;51.270;7.224;2023-02-03T15:44:52;24.23;;;4.53;;
21894;SDS011;11112;51.270;7.224;2023-02-03T15:47:25;26.83;;;4.57;;
21894;SDS011;11112;51.270;7.224;2023-02-03T15:50:01;25.63;;;4.93;;
21894;SDS011;11112;51.270;7.224;2023-02-03T15:52:43;26.70;;;5.13;;
21894;SDS011;11112;51.270;7.224;2023-02-03T15:55:16;28.13;;;4.63;;
21894;SDS011;11112;51.270;7.224;2023-02-03T15:57:57;34.40;;;5.30;;